This is the latest recevied weather packets stored in our database for station/object KG5EO. If no packets are shown the sender has not sent any weather packets the latest 10 day(s).
| Time | Temp. | Humidity | Pressure | Rain* | Wind** | Luminosity | Snow |
|---|---|---|---|---|---|---|---|
| 1778077572 | 18.89° C | 42% | 41.2 hPa | 0 mm | - | - | - |
| 1778077271 | 17.78° C | 44% | 41.2 hPa | 0 mm | - | - | - |
| 1778076972 | 17.22° C | 47% | 41.2 hPa | 0 mm | - | - | - |
| 1778076672 | 16.67° C | 47% | 41.2 hPa | 0 mm | - | - | - |
| 1778076373 | 16.67° C | 47% | 41.2 hPa | 0 mm | - | - | - |
| 1778076071 | 16.67° C | 48% | 41.1 hPa | 0 mm | - | - | - |
| 1778075771 | 15.56° C | 52% | 41.1 hPa | 0 mm | - | - | - |
| 1778075471 | 15.56° C | 50% | 41.1 hPa | 0 mm | - | - | - |
| 1778075170 | 15° C | 51% | 41.1 hPa | 0 mm | - | - | - |
| 1778074870 | 14.44° C | 55% | 41.1 hPa | 0 mm | - | - | - |
| 1778074571 | 13.89° C | 57% | 41.1 hPa | 0 mm | - | - | - |
| 1778074270 | 13.33° C | 59% | 41.1 hPa | 0 mm | - | - | - |
| 1778073970 | 12.78° C | 57% | 41.1 hPa | 0 mm | - | - | - |
| 1778073670 | 12.22° C | 59% | 41.1 hPa | 0 mm | - | - | - |
| 1778073370 | 12.22° C | 58% | 41.1 hPa | 0 mm | - | - | - |
| 1778073069 | 12.22° C | 58% | 41.1 hPa | 0 mm | - | - | - |
| 1778072769 | 12.22° C | 59% | 41.1 hPa | 0 mm | - | - | - |
| 1778072469 | 12.22° C | 58% | 41.1 hPa | 0 mm | - | - | - |
| 1778072169 | 12.22° C | 57% | 41.1 hPa | 0 mm | - | - | - |
| 1778071869 | 12.78° C | 56% | 41.1 hPa | 0 mm | - | - | - |
| 1778071569 | 12.78° C | 54% | 41.1 hPa | 0 mm | - | - | - |
| 1778071269 | 12.78° C | 55% | 41.1 hPa | 0 mm | - | - | - |
| 1778070968 | 12.78° C | 54% | 41.1 hPa | 0 mm | - | - | - |
| 1778070668 | 12.78° C | 54% | 41.1 hPa | 0 mm | - | - | - |
| 1778070368 | 12.78° C | 54% | 41.1 hPa | 0 mm | - | - | - |
* Rain latest hour (hover to see other rain measurements)
** Current wind speed in m/s (hover to see current wind gust speed)